sensor_id;sensor_type;location;lat;lon;timestamp;P1;durP1;ratioP1;P2;durP2;ratioP2
67156;SDS011;54086;50.126;8.710;2022-12-01T00:01:57;34.10;;;12.53;;
67156;SDS011;54086;50.126;8.710;2022-12-01T00:04:23;29.17;;;13.40;;
67156;SDS011;54086;50.126;8.710;2022-12-01T00:06:48;32.85;;;13.05;;
67156;SDS011;54086;50.126;8.710;2022-12-01T00:09:13;33.23;;;12.70;;
67156;SDS011;54086;50.126;8.710;2022-12-01T00:12:08;34.63;;;13.47;;
67156;SDS011;54086;50.126;8.710;2022-12-01T00:14:33;34.97;;;14.02;;
67156;SDS011;54086;50.126;8.710;2022-12-01T00:16:59;36.47;;;15.27;;
67156;SDS011;54086;50.126;8.710;2022-12-01T00:19:25;35.03;;;14.67;;
67156;SDS011;54086;50.126;8.710;2022-12-01T00:21:51;39.75;;;14.27;;
67156;SDS011;54086;50.126;8.710;2022-12-01T00:24:16;34.70;;;13.90;;
67156;SDS011;54086;50.126;8.710;2022-12-01T00:26:42;39.97;;;13.97;;
67156;SDS011;54086;50.126;8.710;2022-12-01T00:29:07;37.00;;;14.60;;
67156;SDS011;54086;50.126;8.710;2022-12-01T00:31:33;36.95;;;13.57;;
67156;SDS011;54086;50.126;8.710;2022-12-01T00:33:58;40.87;;;15.63;;
67156;SDS011;54086;50.126;8.710;2022-12-01T00:36:24;39.08;;;15.25;;
67156;SDS011;54086;50.126;8.710;2022-12-01T00:38:55;40.03;;;16.37;;
67156;SDS011;54086;50.126;8.710;2022-12-01T00:41:21;35.55;;;14.75;;
67156;SDS011;54086;50.126;8.710;2022-12-01T00:43:47;39.67;;;15.10;;
67156;SDS011;54086;50.126;8.710;2022-12-01T00:46:13;37.23;;;15.00;;
67156;SDS011;54086;50.126;8.710;2022-12-01T00:48:39;42.28;;;16.33;;
67156;SDS011;54086;50.126;8.710;2022-12-01T00:51:04;35.83;;;14.20;;
67156;SDS011;54086;50.126;8.710;2022-12-01T00:53:30;39.13;;;16.10;;
67156;SDS011;54086;50.126;8.710;2022-12-01T00:55:56;35.95;;;14.20;;
67156;SDS011;54086;50.126;8.710;2022-12-01T00:58:21;37.70;;;15.87;;
67156;SDS011;54086;50.126;8.710;2022-12-01T01:00:48;35.75;;;14.75;;
67156;SDS011;54086;50.126;8.710;2022-12-01T01:03:20;39.53;;;14.60;;
67156;SDS011;54086;50.126;8.710;2022-12-01T01:05:45;39.63;;;15.57;;
67156;SDS011;54086;50.126;8.710;2022-12-01T01:08:11;41.70;;;15.93;;
67156;SDS011;54086;50.126;8.710;2022-12-01T01:10:42;44.13;;;16.15;;
67156;SDS011;54086;50.126;8.710;2022-12-01T01:13:09;41.83;;;15.33;;
67156;SDS011;54086;50.126;8.710;2022-12-01T01:15:35;43.97;;;16.00;;
67156;SDS011;54086;50.126;8.710;2022-12-01T01:18:01;44.35;;;15.88;;
67156;SDS011;54086;50.126;8.710;2022-12-01T01:20:27;42.67;;;18.00;;
67156;SDS011;54086;50.126;8.710;2022-12-01T01:22:52;46.70;;;17.63;;
67156;SDS011;54086;50.126;8.710;2022-12-01T01:25:18;44.37;;;17.13;;
67156;SDS011;54086;50.126;8.710;2022-12-01T01:27:43;43.73;;;17.67;;
67156;SDS011;54086;50.126;8.710;2022-12-01T01:30:08;48.23;;;18.10;;
67156;SDS011;54086;50.126;8.710;2022-12-01T01:32:34;46.38;;;18.30;;
67156;SDS011;54086;50.126;8.710;2022-12-01T01:35:00;43.83;;;17.60;;
67156;SDS011;54086;50.126;8.710;2022-12-01T01:37:25;44.57;;;16.90;;
67156;SDS011;54086;50.126;8.710;2022-12-01T01:39:50;46.70;;;17.33;;
67156;SDS011;54086;50.126;8.710;2022-12-01T01:42:17;45.47;;;17.90;;
67156;SDS011;54086;50.126;8.710;2022-12-01T01:44:48;42.55;;;17.88;;
67156;SDS011;54086;50.126;8.710;2022-12-01T01:47:16;41.88;;;17.85;;
67156;SDS011;54086;50.126;8.710;2022-12-01T01:49:52;44.60;;;17.83;;
67156;SDS011;54086;50.126;8.710;2022-12-01T01:52:20;41.08;;;17.33;;
67156;SDS011;54086;50.126;8.710;2022-12-01T01:54:48;38.00;;;15.90;;
67156;SDS011;54086;50.126;8.710;2022-12-01T01:57:16;39.55;;;16.00;;
67156;SDS011;54086;50.126;8.710;2022-12-01T01:59:50;34.83;;;15.98;;
67156;SDS011;54086;50.126;8.710;2022-12-01T02:02:19;38.80;;;15.73;;
67156;SDS011;54086;50.126;8.710;2022-12-01T02:04:45;37.70;;;15.07;;
67156;SDS011;54086;50.126;8.710;2022-12-01T02:07:15;34.22;;;14.40;;
67156;SDS011;54086;50.126;8.710;2022-12-01T02:09:42;37.72;;;16.63;;
67156;SDS011;54086;50.126;8.710;2022-12-01T02:12:13;34.47;;;14.53;;
67156;SDS011;54086;50.126;8.710;2022-12-01T02:15:04;35.80;;;14.32;;
67156;SDS011;54086;50.126;8.710;2022-12-01T02:28:47;32.67;;;14.07;;
67156;SDS011;54086;50.126;8.710;2022-12-01T02:31:43;33.38;;;14.38;;
67156;SDS011;54086;50.126;8.710;2022-12-01T02:37:08;33.20;;;14.73;;
67156;SDS011;54086;50.126;8.710;2022-12-01T02:39:54;32.65;;;15.10;;
67156;SDS011;54086;50.126;8.710;2022-12-01T02:42:35;29.33;;;14.10;;
67156;SDS011;54086;50.126;8.710;2022-12-01T02:48:15;28.42;;;13.15;;
67156;SDS011;54086;50.126;8.710;2022-12-01T02:50:44;32.22;;;13.95;;
67156;SDS011;54086;50.126;8.710;2022-12-01T02:53:11;33.47;;;14.20;;
67156;SDS011;54086;50.126;8.710;2022-12-01T02:55:48;30.77;;;13.43;;
67156;SDS011;54086;50.126;8.710;2022-12-01T02:58:16;30.27;;;13.55;;
67156;SDS011;54086;50.126;8.710;2022-12-01T03:00:44;33.13;;;13.50;;
67156;SDS011;54086;50.126;8.710;2022-12-01T03:05:53;31.87;;;14.63;;
67156;SDS011;54086;50.126;8.710;2022-12-01T03:11:00;34.45;;;14.98;;
67156;SDS011;54086;50.126;8.710;2022-12-01T03:19:20;31.47;;;14.53;;
67156;SDS011;54086;50.126;8.710;2022-12-01T03:24:31;33.13;;;13.52;;
67156;SDS011;54086;50.126;8.710;2022-12-01T03:26:59;32.83;;;14.88;;
67156;SDS011;54086;50.126;8.710;2022-12-01T03:29:28;36.22;;;14.90;;
67156;SDS011;54086;50.126;8.710;2022-12-01T03:32:06;34.40;;;15.27;;
67156;SDS011;54086;50.126;8.710;2022-12-01T03:34:40;34.05;;;14.88;;
67156;SDS011;54086;50.126;8.710;2022-12-01T03:37:19;33.70;;;14.75;;
67156;SDS011;54086;50.126;8.710;2022-12-01T03:39:48;32.58;;;14.23;;
67156;SDS011;54086;50.126;8.710;2022-12-01T03:42:20;34.97;;;16.20;;
67156;SDS011;54086;50.126;8.710;2022-12-01T03:44:50;34.23;;;15.33;;
67156;SDS011;54086;50.126;8.710;2022-12-01T03:47:19;36.00;;;15.60;;
67156;SDS011;54086;50.126;8.710;2022-12-01T03:49:47;30.42;;;13.88;;
67156;SDS011;54086;50.126;8.710;2022-12-01T03:52:17;30.30;;;13.90;;
67156;SDS011;54086;50.126;8.710;2022-12-01T03:55:12;36.75;;;14.80;;
67156;SDS011;54086;50.126;8.710;2022-12-01T04:00:25;34.60;;;15.60;;
67156;SDS011;54086;50.126;8.710;2022-12-01T04:02:55;35.58;;;16.83;;
67156;SDS011;54086;50.126;8.710;2022-12-01T04:05:22;38.17;;;15.15;;
67156;SDS011;54086;50.126;8.710;2022-12-01T04:07:47;40.83;;;16.27;;
67156;SDS011;54086;50.126;8.710;2022-12-01T04:10:13;34.05;;;15.38;;
67156;SDS011;54086;50.126;8.710;2022-12-01T04:12:38;33.00;;;14.03;;
67156;SDS011;54086;50.126;8.710;2022-12-01T04:15:05;41.27;;;16.93;;
67156;SDS011;54086;50.126;8.710;2022-12-01T04:17:33;38.35;;;16.00;;
67156;SDS011;54086;50.126;8.710;2022-12-01T04:19:59;35.03;;;16.17;;
67156;SDS011;54086;50.126;8.710;2022-12-01T04:22:25;37.83;;;16.08;;
67156;SDS011;54086;50.126;8.710;2022-12-01T04:24:51;34.28;;;15.30;;
67156;SDS011;54086;50.126;8.710;2022-12-01T04:27:16;37.17;;;15.67;;
67156;SDS011;54086;50.126;8.710;2022-12-01T04:29:42;35.28;;;15.95;;
67156;SDS011;54086;50.126;8.710;2022-12-01T04:32:07;35.97;;;15.23;;
67156;SDS011;54086;50.126;8.710;2022-12-01T04:34:33;31.80;;;14.20;;
67156;SDS011;54086;50.126;8.710;2022-12-01T04:36:58;37.03;;;15.97;;
67156;SDS011;54086;50.126;8.710;2022-12-01T04:39:24;37.28;;;16.80;;
67156;SDS011;54086;50.126;8.710;2022-12-01T04:41:49;32.10;;;14.60;;
67156;SDS011;54086;50.126;8.710;2022-12-01T04:44:14;36.77;;;15.63;;
67156;SDS011;54086;50.126;8.710;2022-12-01T04:46:40;36.90;;;14.80;;
67156;SDS011;54086;50.126;8.710;2022-12-01T04:49:06;30.90;;;14.47;;
67156;SDS011;54086;50.126;8.710;2022-12-01T04:51:31;35.73;;;14.07;;
67156;SDS011;54086;50.126;8.710;2022-12-01T04:53:56;32.57;;;14.60;;
67156;SDS011;54086;50.126;8.710;2022-12-01T04:56:22;36.05;;;15.15;;
67156;SDS011;54086;50.126;8.710;2022-12-01T04:58:47;36.23;;;15.23;;
67156;SDS011;54086;50.126;8.710;2022-12-01T05:01:14;32.65;;;15.27;;
67156;SDS011;54086;50.126;8.710;2022-12-01T05:03:42;30.23;;;13.52;;
67156;SDS011;54086;50.126;8.710;2022-12-01T05:06:14;30.90;;;13.53;;
67156;SDS011;54086;50.126;8.710;2022-12-01T05:08:41;30.17;;;14.98;;
67156;SDS011;54086;50.126;8.710;2022-12-01T05:11:06;34.17;;;16.43;;
67156;SDS011;54086;50.126;8.710;2022-12-01T05:13:33;29.70;;;13.18;;
67156;SDS011;54086;50.126;8.710;2022-12-01T05:16:04;29.27;;;13.75;;
67156;SDS011;54086;50.126;8.710;2022-12-01T05:18:30;35.63;;;16.42;;
67156;SDS011;54086;50.126;8.710;2022-12-01T05:20:56;34.20;;;15.07;;
67156;SDS011;54086;50.126;8.710;2022-12-01T05:23:22;30.73;;;14.33;;
67156;SDS011;54086;50.126;8.710;2022-12-01T05:25:48;29.83;;;12.95;;
67156;SDS011;54086;50.126;8.710;2022-12-01T05:28:14;28.33;;;13.37;;
67156;SDS011;54086;50.126;8.710;2022-12-01T05:30:39;30.97;;;13.70;;
67156;SDS011;54086;50.126;8.710;2022-12-01T05:33:04;29.38;;;13.23;;
67156;SDS011;54086;50.126;8.710;2022-12-01T05:35:32;29.10;;;13.37;;
67156;SDS011;54086;50.126;8.710;2022-12-01T05:37:58;28.30;;;13.55;;
67156;SDS011;54086;50.126;8.710;2022-12-01T05:40:23;27.43;;;13.30;;
67156;SDS011;54086;50.126;8.710;2022-12-01T05:42:48;29.93;;;12.90;;
67156;SDS011;54086;50.126;8.710;2022-12-01T05:45:14;27.80;;;12.67;;
67156;SDS011;54086;50.126;8.710;2022-12-01T05:47:39;32.42;;;14.32;;
67156;SDS011;54086;50.126;8.710;2022-12-01T05:50:05;30.27;;;13.60;;
67156;SDS011;54086;50.126;8.710;2022-12-01T05:52:34;30.15;;;13.77;;
67156;SDS011;54086;50.126;8.710;2022-12-01T05:55:01;29.48;;;12.90;;
67156;SDS011;54086;50.126;8.710;2022-12-01T05:57:27;26.63;;;11.77;;
67156;SDS011;54086;50.126;8.710;2022-12-01T05:59:52;26.08;;;11.90;;
67156;SDS011;54086;50.126;8.710;2022-12-01T06:02:18;29.97;;;13.17;;
67156;SDS011;54086;50.126;8.710;2022-12-01T06:04:43;27.47;;;12.47;;
67156;SDS011;54086;50.126;8.710;2022-12-01T06:07:08;28.90;;;12.93;;
67156;SDS011;54086;50.126;8.710;2022-12-01T06:09:34;32.50;;;15.00;;
67156;SDS011;54086;50.126;8.710;2022-12-01T06:11:59;28.63;;;12.50;;
67156;SDS011;54086;50.126;8.710;2022-12-01T06:14:24;31.53;;;14.40;;
67156;SDS011;54086;50.126;8.710;2022-12-01T06:16:50;32.17;;;13.52;;
67156;SDS011;54086;50.126;8.710;2022-12-01T06:19:15;29.60;;;13.33;;
67156;SDS011;54086;50.126;8.710;2022-12-01T06:21:40;31.77;;;13.60;;
67156;SDS011;54086;50.126;8.710;2022-12-01T06:24:06;31.60;;;14.13;;
67156;SDS011;54086;50.126;8.710;2022-12-01T06:26:31;32.43;;;13.00;;
67156;SDS011;54086;50.126;8.710;2022-12-01T06:28:57;29.00;;;13.45;;
67156;SDS011;54086;50.126;8.710;2022-12-01T06:31:22;27.83;;;13.20;;
67156;SDS011;54086;50.126;8.710;2022-12-01T06:33:47;30.73;;;13.43;;
67156;SDS011;54086;50.126;8.710;2022-12-01T06:36:13;43.60;;;19.47;;
67156;SDS011;54086;50.126;8.710;2022-12-01T06:38:38;31.83;;;13.83;;
67156;SDS011;54086;50.126;8.710;2022-12-01T06:41:04;33.37;;;13.73;;
67156;SDS011;54086;50.126;8.710;2022-12-01T06:43:29;30.75;;;12.63;;
67156;SDS011;54086;50.126;8.710;2022-12-01T06:45:55;32.23;;;14.73;;
67156;SDS011;54086;50.126;8.710;2022-12-01T06:48:21;31.97;;;14.27;;
67156;SDS011;54086;50.126;8.710;2022-12-01T06:50:46;36.60;;;14.80;;
67156;SDS011;54086;50.126;8.710;2022-12-01T06:53:11;31.27;;;14.67;;
67156;SDS011;54086;50.126;8.710;2022-12-01T06:55:37;31.43;;;14.03;;
67156;SDS011;54086;50.126;8.710;2022-12-01T06:58:03;32.95;;;13.85;;
67156;SDS011;54086;50.126;8.710;2022-12-01T07:00:29;29.20;;;13.25;;
67156;SDS011;54086;50.126;8.710;2022-12-01T07:02:54;28.93;;;12.70;;
67156;SDS011;54086;50.126;8.710;2022-12-01T07:05:20;30.47;;;12.13;;
67156;SDS011;54086;50.126;8.710;2022-12-01T07:07:45;26.47;;;12.50;;
67156;SDS011;54086;50.126;8.710;2022-12-01T07:10:11;28.00;;;12.63;;
67156;SDS011;54086;50.126;8.710;2022-12-01T07:12:37;28.55;;;12.15;;
67156;SDS011;54086;50.126;8.710;2022-12-01T07:15:03;23.43;;;11.40;;
67156;SDS011;54086;50.126;8.710;2022-12-01T07:17:30;26.17;;;11.00;;
67156;SDS011;54086;50.126;8.710;2022-12-01T07:19:56;28.08;;;13.48;;
67156;SDS011;54086;50.126;8.710;2022-12-01T07:22:22;23.70;;;11.23;;
67156;SDS011;54086;50.126;8.710;2022-12-01T07:24:47;24.77;;;10.93;;
67156;SDS011;54086;50.126;8.710;2022-12-01T07:27:13;23.43;;;10.53;;
67156;SDS011;54086;50.126;8.710;2022-12-01T07:29:38;26.03;;;11.77;;
67156;SDS011;54086;50.126;8.710;2022-12-01T07:32:04;26.37;;;11.40;;
67156;SDS011;54086;50.126;8.710;2022-12-01T07:34:29;23.93;;;10.60;;
67156;SDS011;54086;50.126;8.710;2022-12-01T07:36:54;32.50;;;11.90;;
67156;SDS011;54086;50.126;8.710;2022-12-01T07:39:20;23.23;;;10.43;;
67156;SDS011;54086;50.126;8.710;2022-12-01T07:41:45;26.30;;;10.70;;
67156;SDS011;54086;50.126;8.710;2022-12-01T07:44:10;25.43;;;10.50;;
67156;SDS011;54086;50.126;8.710;2022-12-01T07:46:36;25.47;;;10.63;;
67156;SDS011;54086;50.126;8.710;2022-12-01T07:49:03;25.50;;;10.63;;
67156;SDS011;54086;50.126;8.710;2022-12-01T07:51:30;25.58;;;10.65;;
67156;SDS011;54086;50.126;8.710;2022-12-01T07:54:00;23.55;;;9.55;;
67156;SDS011;54086;50.126;8.710;2022-12-01T07:56:26;25.10;;;10.38;;
67156;SDS011;54086;50.126;8.710;2022-12-01T07:58:52;25.43;;;11.40;;
67156;SDS011;54086;50.126;8.710;2022-12-01T08:01:18;26.90;;;10.97;;
67156;SDS011;54086;50.126;8.710;2022-12-01T08:03:46;25.63;;;10.30;;
67156;SDS011;54086;50.126;8.710;2022-12-01T08:06:13;20.98;;;10.27;;
67156;SDS011;54086;50.126;8.710;2022-12-01T08:08:39;22.50;;;10.80;;
67156;SDS011;54086;50.126;8.710;2022-12-01T08:11:06;25.38;;;11.98;;
67156;SDS011;54086;50.126;8.710;2022-12-01T08:13:35;24.58;;;10.80;;
67156;SDS011;54086;50.126;8.710;2022-12-01T08:16:04;27.47;;;10.53;;
67156;SDS011;54086;50.126;8.710;2022-12-01T08:18:32;25.45;;;10.05;;
67156;SDS011;54086;50.126;8.710;2022-12-01T08:21:02;26.13;;;10.70;;
67156;SDS011;54086;50.126;8.710;2022-12-01T08:23:28;22.30;;;10.75;;
67156;SDS011;54086;50.126;8.710;2022-12-01T08:25:53;20.37;;;9.07;;
67156;SDS011;54086;50.126;8.710;2022-12-01T08:28:19;24.83;;;11.13;;
67156;SDS011;54086;50.126;8.710;2022-12-01T08:30:45;25.55;;;11.93;;
67156;SDS011;54086;50.126;8.710;2022-12-01T08:33:11;26.30;;;12.98;;
67156;SDS011;54086;50.126;8.710;2022-12-01T08:35:37;25.80;;;11.50;;
67156;SDS011;54086;50.126;8.710;2022-12-01T08:38:03;28.88;;;11.77;;
67156;SDS011;54086;50.126;8.710;2022-12-01T08:40:29;25.70;;;11.40;;
67156;SDS011;54086;50.126;8.710;2022-12-01T08:42:54;25.10;;;10.48;;
67156;SDS011;54086;50.126;8.710;2022-12-01T08:45:20;26.37;;;11.10;;
67156;SDS011;54086;50.126;8.710;2022-12-01T08:47:47;25.35;;;9.95;;
67156;SDS011;54086;50.126;8.710;2022-12-01T08:50:13;33.55;;;12.68;;
67156;SDS011;54086;50.126;8.710;2022-12-01T08:52:38;30.70;;;12.13;;
67156;SDS011;54086;50.126;8.710;2022-12-01T08:55:04;26.03;;;10.90;;
67156;SDS011;54086;50.126;8.710;2022-12-01T08:57:30;24.33;;;10.85;;
67156;SDS011;54086;50.126;8.710;2022-12-01T08:59:56;23.95;;;12.43;;
67156;SDS011;54086;50.126;8.710;2022-12-01T09:02:21;26.30;;;10.20;;
67156;SDS011;54086;50.126;8.710;2022-12-01T09:04:47;22.27;;;11.43;;
67156;SDS011;54086;50.126;8.710;2022-12-01T09:07:14;23.15;;;10.35;;
67156;SDS011;54086;50.126;8.710;2022-12-01T09:09:40;26.05;;;10.85;;
67156;SDS011;54086;50.126;8.710;2022-12-01T09:12:06;23.00;;;10.30;;
67156;SDS011;54086;50.126;8.710;2022-12-01T09:14:35;25.77;;;11.00;;
67156;SDS011;54086;50.126;8.710;2022-12-01T09:17:03;24.10;;;10.03;;
67156;SDS011;54086;50.126;8.710;2022-12-01T09:19:29;23.95;;;10.57;;
67156;SDS011;54086;50.126;8.710;2022-12-01T09:21:54;23.25;;;11.25;;
67156;SDS011;54086;50.126;8.710;2022-12-01T09:24:20;24.40;;;10.17;;
67156;SDS011;54086;50.126;8.710;2022-12-01T09:26:46;25.57;;;11.40;;
67156;SDS011;54086;50.126;8.710;2022-12-01T09:29:12;23.90;;;10.45;;
67156;SDS011;54086;50.126;8.710;2022-12-01T09:31:39;22.83;;;10.37;;
67156;SDS011;54086;50.126;8.710;2022-12-01T09:34:06;24.15;;;11.20;;
67156;SDS011;54086;50.126;8.710;2022-12-01T09:36:35;23.63;;;10.63;;
67156;SDS011;54086;50.126;8.710;2022-12-01T09:39:02;26.63;;;11.85;;
67156;SDS011;54086;50.126;8.710;2022-12-01T09:41:39;25.05;;;10.52;;
67156;SDS011;54086;50.126;8.710;2022-12-01T09:46:42;20.63;;;9.85;;
67156;SDS011;54086;50.126;8.710;2022-12-01T09:49:24;31.27;;;11.90;;
67156;SDS011;54086;50.126;8.710;2022-12-01T09:51:59;28.55;;;11.32;;
67156;SDS011;54086;50.126;8.710;2022-12-01T09:54:25;22.77;;;9.83;;
67156;SDS011;54086;50.126;8.710;2022-12-01T09:56:53;29.17;;;11.05;;
67156;SDS011;54086;50.126;8.710;2022-12-01T09:59:24;25.77;;;10.63;;
67156;SDS011;54086;50.126;8.710;2022-12-01T10:01:54;25.02;;;10.52;;
67156;SDS011;54086;50.126;8.710;2022-12-01T10:04:32;25.80;;;10.43;;
67156;SDS011;54086;50.126;8.710;2022-12-01T10:10:04;28.55;;;11.88;;
67156;SDS011;54086;50.126;8.710;2022-12-01T10:12:48;26.88;;;10.15;;
67156;SDS011;54086;50.126;8.710;2022-12-01T10:18:01;26.45;;;11.00;;
67156;SDS011;54086;50.126;8.710;2022-12-01T10:20:35;34.15;;;13.80;;
67156;SDS011;54086;50.126;8.710;2022-12-01T10:31:10;23.08;;;10.23;;
67156;SDS011;54086;50.126;8.710;2022-12-01T10:33:58;31.67;;;11.30;;
67156;SDS011;54086;50.126;8.710;2022-12-01T10:36:25;23.57;;;10.73;;
67156;SDS011;54086;50.126;8.710;2022-12-01T10:38:54;24.77;;;10.57;;
67156;SDS011;54086;50.126;8.710;2022-12-01T10:41:19;31.20;;;11.10;;
67156;SDS011;54086;50.126;8.710;2022-12-01T10:43:48;23.42;;;10.70;;
67156;SDS011;54086;50.126;8.710;2022-12-01T10:46:42;34.67;;;11.18;;
67156;SDS011;54086;50.126;8.710;2022-12-01T10:49:11;23.85;;;10.52;;
67156;SDS011;54086;50.126;8.710;2022-12-01T10:51:45;22.08;;;10.07;;
67156;SDS011;54086;50.126;8.710;2022-12-01T10:54:12;23.00;;;10.90;;
67156;SDS011;54086;50.126;8.710;2022-12-01T10:56:38;31.58;;;11.75;;
67156;SDS011;54086;50.126;8.710;2022-12-01T10:59:14;23.20;;;10.27;;
67156;SDS011;54086;50.126;8.710;2022-12-01T11:01:47;24.00;;;10.77;;
67156;SDS011;54086;50.126;8.710;2022-12-01T11:06:47;28.45;;;11.50;;
67156;SDS011;54086;50.126;8.710;2022-12-01T11:09:17;24.20;;;10.87;;
67156;SDS011;54086;50.126;8.710;2022-12-01T11:11:44;27.60;;;12.02;;
67156;SDS011;54086;50.126;8.710;2022-12-01T11:14:19;26.50;;;10.93;;
67156;SDS011;54086;50.126;8.710;2022-12-01T11:16:49;32.92;;;11.68;;
67156;SDS011;54086;50.126;8.710;2022-12-01T11:21:47;27.83;;;11.10;;
67156;SDS011;54086;50.126;8.710;2022-12-01T11:24:24;24.73;;;11.93;;
67156;SDS011;54086;50.126;8.710;2022-12-01T11:27:12;22.65;;;10.07;;
67156;SDS011;54086;50.126;8.710;2022-12-01T11:29:43;29.48;;;11.57;;
67156;SDS011;54086;50.126;8.710;2022-12-01T11:32:14;47.17;;;12.18;;
67156;SDS011;54086;50.126;8.710;2022-12-01T11:34:49;23.97;;;10.30;;
67156;SDS011;54086;50.126;8.710;2022-12-01T11:37:19;24.42;;;10.60;;
67156;SDS011;54086;50.126;8.710;2022-12-01T11:39:46;24.23;;;10.98;;
67156;SDS011;54086;50.126;8.710;2022-12-01T11:44:38;23.57;;;10.63;;
67156;SDS011;54086;50.126;8.710;2022-12-01T11:49:59;26.75;;;11.57;;
67156;SDS011;54086;50.126;8.710;2022-12-01T11:55:00;23.65;;;11.23;;
67156;SDS011;54086;50.126;8.710;2022-12-01T11:57:47;22.25;;;10.60;;
67156;SDS011;54086;50.126;8.710;2022-12-01T12:00:18;22.95;;;10.60;;
67156;SDS011;54086;50.126;8.710;2022-12-01T12:05:44;22.73;;;9.83;;
67156;SDS011;54086;50.126;8.710;2022-12-01T12:21:38;22.48;;;9.95;;
67156;SDS011;54086;50.126;8.710;2022-12-01T12:24:19;23.85;;;11.55;;
67156;SDS011;54086;50.126;8.710;2022-12-01T12:37:53;24.65;;;11.05;;
67156;SDS011;54086;50.126;8.710;2022-12-01T12:40:46;24.37;;;11.43;;
67156;SDS011;54086;50.126;8.710;2022-12-01T12:43:26;25.25;;;11.73;;
67156;SDS011;54086;50.126;8.710;2022-12-01T12:46:05;26.17;;;12.32;;
67156;SDS011;54086;50.126;8.710;2022-12-01T12:54:11;23.70;;;10.27;;
67156;SDS011;54086;50.126;8.710;2022-12-01T12:56:34;24.73;;;11.38;;
67156;SDS011;54086;50.126;8.710;2022-12-01T12:59:08;27.83;;;12.32;;
67156;SDS011;54086;50.126;8.710;2022-12-01T13:01:39;25.90;;;11.90;;
67156;SDS011;54086;50.126;8.710;2022-12-01T13:04:12;22.63;;;10.70;;
67156;SDS011;54086;50.126;8.710;2022-12-01T13:06:50;21.73;;;10.40;;
67156;SDS011;54086;50.126;8.710;2022-12-01T13:09:22;25.52;;;11.23;;
67156;SDS011;54086;50.126;8.710;2022-12-01T13:11:59;24.27;;;11.75;;
67156;SDS011;54086;50.126;8.710;2022-12-01T13:14:38;26.38;;;11.02;;
67156;SDS011;54086;50.126;8.710;2022-12-01T13:17:13;24.50;;;11.43;;
67156;SDS011;54086;50.126;8.710;2022-12-01T13:19:43;23.67;;;11.67;;
67156;SDS011;54086;50.126;8.710;2022-12-01T13:22:11;28.38;;;11.30;;
67156;SDS011;54086;50.126;8.710;2022-12-01T13:24:38;25.02;;;12.00;;
67156;SDS011;54086;50.126;8.710;2022-12-01T13:27:05;24.43;;;11.40;;
67156;SDS011;54086;50.126;8.710;2022-12-01T13:29:38;23.38;;;11.07;;
67156;SDS011;54086;50.126;8.710;2022-12-01T13:32:09;32.50;;;12.88;;
67156;SDS011;54086;50.126;8.710;2022-12-01T13:37:54;26.10;;;11.82;;
67156;SDS011;54086;50.126;8.710;2022-12-01T13:40:35;24.63;;;11.43;;
67156;SDS011;54086;50.126;8.710;2022-12-01T13:43:05;25.42;;;12.13;;
67156;SDS011;54086;50.126;8.710;2022-12-01T13:45:39;28.23;;;11.18;;
67156;SDS011;54086;50.126;8.710;2022-12-01T13:48:05;25.63;;;10.97;;
67156;SDS011;54086;50.126;8.710;2022-12-01T13:50:53;30.55;;;12.95;;
67156;SDS011;54086;50.126;8.710;2022-12-01T14:03:55;27.63;;;10.27;;
67156;SDS011;54086;50.126;8.710;2022-12-01T14:12:32;23.23;;;10.80;;
67156;SDS011;54086;50.126;8.710;2022-12-01T14:14:58;22.30;;;9.67;;
67156;SDS011;54086;50.126;8.710;2022-12-01T14:17:28;23.48;;;10.30;;
67156;SDS011;54086;50.126;8.710;2022-12-01T14:20:42;24.50;;;11.98;;
67156;SDS011;54086;50.126;8.710;2022-12-01T14:22:45;26.02;;;10.32;;
67156;SDS011;54086;50.126;8.710;2022-12-01T14:27:49;26.03;;;10.67;;
67156;SDS011;54086;50.126;8.710;2022-12-01T14:36:05;25.00;;;11.32;;
67156;SDS011;54086;50.126;8.710;2022-12-01T14:38:37;25.20;;;11.10;;
67156;SDS011;54086;50.126;8.710;2022-12-01T14:41:07;23.27;;;10.63;;
67156;SDS011;54086;50.126;8.710;2022-12-01T14:43:34;26.88;;;11.38;;
67156;SDS011;54086;50.126;8.710;2022-12-01T14:46:21;27.40;;;12.40;;
67156;SDS011;54086;50.126;8.710;2022-12-01T14:48:50;31.77;;;11.70;;
67156;SDS011;54086;50.126;8.710;2022-12-01T14:54:08;25.20;;;11.07;;
67156;SDS011;54086;50.126;8.710;2022-12-01T14:56:41;23.70;;;11.32;;
67156;SDS011;54086;50.126;8.710;2022-12-01T14:59:18;25.13;;;11.57;;
67156;SDS011;54086;50.126;8.710;2022-12-01T15:01:45;26.05;;;10.85;;
67156;SDS011;54086;50.126;8.710;2022-12-01T15:04:14;25.27;;;11.25;;
67156;SDS011;54086;50.126;8.710;2022-12-01T15:06:39;27.27;;;11.13;;
67156;SDS011;54086;50.126;8.710;2022-12-01T15:09:10;29.27;;;11.67;;
67156;SDS011;54086;50.126;8.710;2022-12-01T15:11:37;24.58;;;11.70;;
67156;SDS011;54086;50.126;8.710;2022-12-01T15:14:23;31.60;;;15.52;;
67156;SDS011;54086;50.126;8.710;2022-12-01T15:16:57;33.08;;;11.65;;
67156;SDS011;54086;50.126;8.710;2022-12-01T15:22:04;24.73;;;11.50;;
67156;SDS011;54086;50.126;8.710;2022-12-01T15:24:37;26.23;;;11.57;;
67156;SDS011;54086;50.126;8.710;2022-12-01T15:27:02;25.70;;;11.53;;
67156;SDS011;54086;50.126;8.710;2022-12-01T15:29:29;25.83;;;11.20;;
67156;SDS011;54086;50.126;8.710;2022-12-01T15:32:00;23.67;;;10.48;;
67156;SDS011;54086;50.126;8.710;2022-12-01T15:36:58;28.80;;;11.75;;
67156;SDS011;54086;50.126;8.710;2022-12-01T15:39:35;26.42;;;11.98;;
67156;SDS011;54086;50.126;8.710;2022-12-01T15:42:04;33.70;;;12.00;;
67156;SDS011;54086;50.126;8.710;2022-12-01T15:44:34;26.50;;;12.23;;
67156;SDS011;54086;50.126;8.710;2022-12-01T15:50:26;29.80;;;11.50;;
67156;SDS011;54086;50.126;8.710;2022-12-01T15:52:53;26.45;;;11.20;;
67156;SDS011;54086;50.126;8.710;2022-12-01T15:55:27;29.03;;;11.97;;
67156;SDS011;54086;50.126;8.710;2022-12-01T15:57:55;34.35;;;12.85;;
67156;SDS011;54086;50.126;8.710;2022-12-01T16:00:22;29.05;;;11.93;;
67156;SDS011;54086;50.126;8.710;2022-12-01T16:02:49;26.13;;;11.13;;
67156;SDS011;54086;50.126;8.710;2022-12-01T16:05:17;30.65;;;11.60;;
67156;SDS011;54086;50.126;8.710;2022-12-01T16:07:46;24.80;;;11.67;;
67156;SDS011;54086;50.126;8.710;2022-12-01T16:12:52;29.50;;;12.32;;
67156;SDS011;54086;50.126;8.710;2022-12-01T16:15:56;25.90;;;11.43;;
67156;SDS011;54086;50.126;8.710;2022-12-01T16:18:27;27.13;;;11.77;;
67156;SDS011;54086;50.126;8.710;2022-12-01T16:21:00;27.88;;;11.45;;
67156;SDS011;54086;50.126;8.710;2022-12-01T16:23:27;29.88;;;12.30;;
67156;SDS011;54086;50.126;8.710;2022-12-01T16:25:53;29.43;;;12.73;;
67156;SDS011;54086;50.126;8.710;2022-12-01T16:31:06;28.88;;;12.27;;
67156;SDS011;54086;50.126;8.710;2022-12-01T16:33:41;26.98;;;11.60;;
67156;SDS011;54086;50.126;8.710;2022-12-01T16:36:07;24.70;;;12.17;;
67156;SDS011;54086;50.126;8.710;2022-12-01T16:38:32;28.00;;;11.40;;
67156;SDS011;54086;50.126;8.710;2022-12-01T16:40:58;24.60;;;11.30;;
67156;SDS011;54086;50.126;8.710;2022-12-01T16:43:26;27.70;;;12.10;;
67156;SDS011;54086;50.126;8.710;2022-12-01T16:45:59;26.73;;;12.85;;
67156;SDS011;54086;50.126;8.710;2022-12-01T16:48:27;29.85;;;12.75;;
67156;SDS011;54086;50.126;8.710;2022-12-01T16:50:52;32.92;;;13.32;;
67156;SDS011;54086;50.126;8.710;2022-12-01T16:53:18;30.57;;;11.40;;